Time;durP1;ratioP1;P1;durP2;ratioP2;P2;SDS_P1;SDS_P2;PMS_P1;PMS_P2;Temp;Humidity;BMP_temperature;BMP_pressure;BME280_temperature;BME280_humidity;BME280_pressure;Samples;Min_cycle;Max_cycle;Signal;HPM_P1;HPM_P2
2023/03/16 00:01:37;;;;;;;7.35;2.65;;;3.30;99.90;;;;;;4956865;28;20057;-66
2023/03/16 00:04:03;;;;;;;7.97;2.58;;;3.30;99.90;;;;;;4955116;28;20038;-66
2023/03/16 00:06:29;;;;;;;8.45;2.53;;;3.40;99.90;;;;;;4971649;28;20051;-65
2023/03/16 00:08:57;;;;;;;5.35;2.17;;;3.40;99.90;;;;;;4956398;28;20091;-66
2023/03/16 00:15:05;;;;;;;5.35;2.35;;;3.50;99.90;;;;;;4968144;28;20057;-65
2023/03/16 00:17:33;;;;;;;5.20;2.55;;;3.50;99.90;;;;;;4973208;28;20133;-66
2023/03/16 00:20:05;;;;;;;6.13;2.08;;;3.60;99.90;;;;;;4971805;28;20053;-65
2023/03/16 00:22:31;;;;;;;6.38;2.50;;;3.60;99.90;;;;;;4949215;28;20039;-65
2023/03/16 00:24:57;;;;;;;5.50;2.15;;;3.60;99.90;;;;;;4972159;28;20039;-66
2023/03/16 00:27:24;;;;;;;6.65;2.10;;;3.70;99.90;;;;;;4987381;28;20045;-66
2023/03/16 00:29:54;;;;;;;10.10;2.47;;;3.70;99.90;;;;;;4972648;28;20121;-66
2023/03/16 00:36:03;;;;;;;4.25;2.28;;;3.80;99.90;;;;;;4968806;28;20046;-66
2023/03/16 00:38:34;;;;;;;4.53;2.17;;;3.80;99.90;;;;;;4954422;28;20381;-66
2023/03/16 00:41:04;;;;;;;6.65;2.00;;;3.80;99.90;;;;;;4950212;28;20065;-65
2023/03/16 00:43:31;;;;;;;7.63;3.25;;;3.70;99.90;;;;;;4969758;28;20406;-64
2023/03/16 00:46:05;;;;;;;7.80;2.55;;;3.80;99.90;;;;;;4970447;28;20043;-64
2023/03/16 00:48:33;;;;;;;7.85;2.90;;;3.80;99.90;;;;;;4952137;28;20074;-65
2023/03/16 00:51:03;;;;;;;4.15;2.20;;;3.80;99.90;;;;;;4971618;28;20039;-65
2023/03/16 00:53:30;;;;;;;7.72;2.40;;;3.80;99.90;;;;;;4956208;28;20035;-64
2023/03/16 00:55:56;;;;;;;6.07;2.80;;;3.80;99.90;;;;;;4955480;28;20081;-65
2023/03/16 00:58:22;;;;;;;7.35;3.22;;;3.80;99.90;;;;;;4958485;28;20128;-65
2023/03/16 01:00:47;;;;;;;6.40;3.10;;;3.80;99.90;;;;;;4953708;28;20105;-65
2023/03/16 01:03:13;;;;;;;7.43;3.22;;;3.90;99.90;;;;;;4974364;28;20126;-65
2023/03/16 01:05:40;;;;;;;10.27;3.10;;;3.80;99.90;;;;;;4988158;28;20034;-64
2023/03/16 01:08:07;;;;;;;6.78;2.85;;;3.80;99.90;;;;;;4955835;28;20486;-65
2023/03/16 01:10:34;;;;;;;5.78;2.90;;;3.80;99.90;;;;;;4972359;28;20097;-65
2023/03/16 01:13:02;;;;;;;9.00;2.60;;;3.80;99.90;;;;;;4964361;28;20043;-64
2023/03/16 01:15:30;;;;;;;8.00;2.83;;;3.80;99.90;;;;;;4972868;28;20510;-65
2023/03/16 01:17:56;;;;;;;6.30;3.00;;;3.70;99.90;;;;;;4973807;28;20042;-64
2023/03/16 01:20:22;;;;;;;4.90;2.83;;;3.70;99.90;;;;;;4939919;28;20570;-65
2023/03/16 01:22:48;;;;;;;6.28;2.75;;;3.70;99.90;;;;;;4971929;28;20098;-65
2023/03/16 01:25:14;;;;;;;7.85;3.13;;;3.60;99.90;;;;;;4988226;28;20042;-65
2023/03/16 01:27:41;;;;;;;6.43;2.58;;;3.60;99.90;;;;;;4974901;28;20043;-65
2023/03/16 01:30:07;;;;;;;6.32;3.03;;;3.50;99.90;;;;;;4988075;28;20137;-64
2023/03/16 01:32:33;;;;;;;6.65;2.70;;;3.50;99.90;;;;;;4972921;28;20046;-64
2023/03/16 01:34:58;;;;;;;5.65;2.80;;;3.50;99.90;;;;;;4988069;28;20470;-64
2023/03/16 01:37:24;;;;;;;6.53;2.85;;;3.50;99.90;;;;;;4953100;28;20656;-64
2023/03/16 01:39:50;;;;;;;8.68;2.83;;;3.50;99.90;;;;;;4970866;28;20121;-65
2023/03/16 01:42:16;;;;;;;6.07;2.90;;;3.40;99.90;;;;;;4974721;28;20658;-65
2023/03/16 01:44:55;;;;;;;7.60;3.05;;;3.40;99.90;;;;;;4977780;28;20050;-65
2023/03/16 01:47:21;;;;;;;6.75;2.92;;;3.40;99.90;;;;;;4975012;28;20079;-65
2023/03/16 01:49:53;;;;;;;8.35;3.10;;;3.30;99.90;;;;;;4974776;28;20042;-65
2023/03/16 01:52:24;;;;;;;5.97;2.97;;;3.40;99.90;;;;;;4974448;28;20034;-65
2023/03/16 01:55:01;;;;;;;6.90;3.28;;;3.30;99.90;;;;;;4940678;28;20054;-65
2023/03/16 01:57:35;;;;;;;7.32;3.60;;;3.30;99.90;;;;;;4974802;28;20046;-65
2023/03/16 02:00:19;;;;;;;7.05;3.33;;;3.30;99.90;;;;;;4974839;28;20035;-65
2023/03/16 02:02:55;;;;;;;10.98;3.95;;;3.20;99.90;;;;;;4948135;28;20046;-65
2023/03/16 02:05:27;;;;;;;6.65;3.60;;;3.20;99.90;;;;;;4971217;28;20043;-65
2023/03/16 02:07:57;;;;;;;7.80;3.13;;;3.20;99.90;;;;;;4953525;28;20142;-65
2023/03/16 02:10:24;;;;;;;12.30;3.50;;;3.20;99.90;;;;;;4967421;28;20046;-65
2023/03/16 02:12:52;;;;;;;7.30;3.83;;;3.20;99.90;;;;;;4969166;28;20051;-65
2023/03/16 02:15:18;;;;;;;8.30;3.78;;;3.20;99.90;;;;;;4953518;28;20403;-65
2023/03/16 02:17:46;;;;;;;7.93;3.67;;;3.30;99.90;;;;;;4968442;28;20038;-65
2023/03/16 02:20:34;;;;;;;8.32;3.83;;;3.30;99.90;;;;;;4952756;28;20043;-64
2023/03/16 02:23:02;;;;;;;9.45;3.95;;;3.30;99.90;;;;;;4969941;28;20050;-65
2023/03/16 02:25:45;;;;;;;13.85;4.00;;;3.30;99.90;;;;;;4970385;28;20046;-65
2023/03/16 02:28:34;;;;;;;9.43;3.58;;;3.40;99.90;;;;;;4971718;28;20038;-65
2023/03/16 02:31:01;;;;;;;9.77;3.92;;;3.30;99.90;;;;;;4983228;28;20035;-65
2023/03/16 02:33:28;;;;;;;8.85;3.70;;;3.30;99.90;;;;;;4951577;28;20077;-65
2023/03/16 02:35:54;;;;;;;6.05;3.08;;;3.30;99.90;;;;;;4971133;28;20034;-65
2023/03/16 02:38:20;;;;;;;9.73;3.83;;;3.40;99.90;;;;;;4969038;28;20047;-64
2023/03/16 02:40:58;;;;;;;6.72;3.38;;;3.40;99.90;;;;;;4969612;28;20121;-64
2023/03/16 02:43:32;;;;;;;8.00;3.58;;;3.50;99.90;;;;;;4951884;28;20034;-65
2023/03/16 02:46:02;;;;;;;7.03;3.53;;;3.50;99.90;;;;;;4969213;28;20750;-64
2023/03/16 02:48:36;;;;;;;8.05;3.33;;;3.50;99.90;;;;;;4971232;28;20380;-64
2023/03/16 02:51:03;;;;;;;9.18;3.65;;;3.60;99.90;;;;;;4971272;28;20604;-64
2023/03/16 02:53:28;;;;;;;7.47;3.70;;;3.60;99.90;;;;;;4968886;28;20126;-65
2023/03/16 02:55:54;;;;;;;8.20;3.45;;;3.60;99.90;;;;;;4970257;28;20126;-64
2023/03/16 02:58:20;;;;;;;7.75;3.55;;;3.60;99.90;;;;;;4970701;28;20399;-64
2023/03/16 03:00:45;;;;;;;6.78;3.20;;;3.70;99.90;;;;;;4984615;28;20047;-65
2023/03/16 03:03:12;;;;;;;5.00;2.58;;;3.70;99.90;;;;;;4939926;28;20046;-65
2023/03/16 03:05:39;;;;;;;7.47;3.97;;;3.80;99.90;;;;;;4972715;28;20585;-65
2023/03/16 03:08:05;;;;;;;7.50;3.28;;;3.80;99.90;;;;;;4937508;28;20458;-65
2023/03/16 03:10:31;;;;;;;6.78;2.90;;;3.80;99.90;;;;;;4952451;28;20039;-65
2023/03/16 03:12:57;;;;;;;8.32;3.80;;;3.90;99.90;;;;;;4970673;28;20065;-64
2023/03/16 03:15:23;;;;;;;7.72;3.58;;;3.90;99.90;;;;;;4970295;28;20043;-64
2023/03/16 03:17:50;;;;;;;6.93;2.95;;;3.90;99.90;;;;;;4951450;28;20042;-64
2023/03/16 03:20:16;;;;;;;7.53;3.13;;;3.90;99.90;;;;;;4953572;28;20344;-64
2023/03/16 03:22:44;;;;;;;6.30;2.78;;;4.00;99.90;;;;;;4952978;28;20070;-64
2023/03/16 03:25:12;;;;;;;7.38;3.60;;;4.00;99.90;;;;;;4950715;28;20106;-64
2023/03/16 03:27:39;;;;;;;6.78;3.65;;;4.00;99.90;;;;;;4968995;28;20118;-64
2023/03/16 03:30:05;;;;;;;8.38;3.03;;;4.20;99.90;;;;;;4969092;28;20039;-65
2023/03/16 03:32:31;;;;;;;8.52;3.10;;;4.10;99.90;;;;;;4966282;28;20042;-65
2023/03/16 03:34:57;;;;;;;6.20;3.40;;;4.10;99.90;;;;;;4970654;28;20154;-65
2023/03/16 03:37:23;;;;;;;7.30;2.78;;;4.20;99.90;;;;;;4969599;28;20046;-65
2023/03/16 03:39:49;;;;;;;5.43;2.78;;;4.20;99.90;;;;;;4944004;28;20063;-65
2023/03/16 03:42:14;;;;;;;7.07;2.67;;;4.20;99.90;;;;;;4968496;28;20039;-65
2023/03/16 03:44:40;;;;;;;5.72;2.80;;;4.20;99.90;;;;;;4971119;28;20073;-65
2023/03/16 03:47:06;;;;;;;5.03;2.38;;;4.30;99.90;;;;;;4968698;28;20162;-65
2023/03/16 03:49:31;;;;;;;5.93;3.17;;;4.30;99.90;;;;;;4969079;28;20055;-65
2023/03/16 03:51:58;;;;;;;8.18;3.17;;;4.30;99.90;;;;;;4968741;28;20047;-65
2023/03/16 03:54:24;;;;;;;5.03;2.70;;;4.20;99.90;;;;;;4970279;28;20170;-65
2023/03/16 03:56:51;;;;;;;11.77;2.83;;;4.30;99.90;;;;;;4969161;28;20042;-65
2023/03/16 03:59:17;;;;;;;6.32;2.80;;;4.30;99.90;;;;;;4970724;28;20043;-65
2023/03/16 04:01:43;;;;;;;6.88;2.90;;;4.30;99.90;;;;;;4983576;28;20483;-65
2023/03/16 04:04:08;;;;;;;7.32;3.10;;;4.30;99.90;;;;;;4969094;28;20159;-65
2023/03/16 04:06:34;;;;;;;5.18;2.45;;;4.30;99.90;;;;;;4971028;28;20038;-65
2023/03/16 04:09:00;;;;;;;9.73;3.15;;;4.30;99.90;;;;;;4940333;28;20050;-65
2023/03/16 04:11:25;;;;;;;6.78;2.95;;;4.30;99.90;;;;;;4985556;28;20109;-65
2023/03/16 04:13:52;;;;;;;4.15;2.97;;;4.30;99.90;;;;;;4952915;28;20038;-65
2023/03/16 04:16:19;;;;;;;7.78;2.90;;;4.30;99.90;;;;;;4969982;28;20043;-65
2023/03/16 04:18:45;;;;;;;4.85;2.75;;;4.30;99.90;;;;;;4969560;28;20506;-65
2023/03/16 04:21:16;;;;;;;5.80;2.50;;;4.30;99.90;;;;;;4967812;28;20533;-65
2023/03/16 04:23:42;;;;;;;4.75;2.85;;;4.30;99.90;;;;;;4970472;28;20363;-65
2023/03/16 04:26:08;;;;;;;8.52;3.03;;;4.30;99.90;;;;;;4971453;28;20675;-65
2023/03/16 04:28:34;;;;;;;6.30;2.85;;;4.30;99.90;;;;;;4974845;28;20038;-65
2023/03/16 04:31:01;;;;;;;6.50;2.20;;;4.30;99.90;;;;;;4971924;28;20281;-65
2023/03/16 04:33:27;;;;;;;5.47;3.00;;;4.20;99.90;;;;;;4973824;28;20122;-65
2023/03/16 04:35:52;;;;;;;5.82;2.78;;;4.30;99.90;;;;;;4973442;28;20125;-66
2023/03/16 04:38:18;;;;;;;4.95;2.80;;;4.30;99.90;;;;;;4988003;28;20042;-66
2023/03/16 04:40:44;;;;;;;7.65;3.35;;;4.30;99.90;;;;;;4987584;28;20038;-65
2023/03/16 04:43:09;;;;;;;6.82;2.88;;;4.30;99.90;;;;;;4954901;28;20422;-65
2023/03/16 04:45:35;;;;;;;4.90;2.92;;;4.30;99.90;;;;;;4985961;28;20113;-65
2023/03/16 04:48:01;;;;;;;6.53;2.72;;;4.30;99.90;;;;;;4972526;28;20093;-65
2023/03/16 04:50:27;;;;;;;5.22;2.90;;;4.30;99.90;;;;;;4988552;28;20454;-65
2023/03/16 04:52:52;;;;;;;5.88;3.10;;;4.40;99.90;;;;;;4971406;28;20105;-64
2023/03/16 04:55:18;;;;;;;6.30;2.95;;;4.30;99.90;;;;;;4953964;28;20125;-65
2023/03/16 04:57:44;;;;;;;5.00;2.70;;;4.30;99.90;;;;;;4989414;28;20405;-65
2023/03/16 05:00:17;;;;;;;5.13;2.95;;;4.40;99.90;;;;;;4968460;28;20178;-65
2023/03/16 05:02:43;;;;;;;6.00;3.28;;;4.30;99.90;;;;;;4970372;28;20039;-65
2023/03/16 05:05:09;;;;;;;3.75;2.60;;;4.40;99.90;;;;;;4972328;28;20430;-65
2023/03/16 05:07:35;;;;;;;4.70;3.00;;;4.40;99.90;;;;;;4955768;28;20038;-65
2023/03/16 05:10:01;;;;;;;5.32;3.05;;;4.40;99.90;;;;;;4975489;28;20054;-65
2023/03/16 05:12:27;;;;;;;5.55;2.95;;;4.40;99.90;;;;;;4986903;28;20046;-65
2023/03/16 05:14:52;;;;;;;7.07;3.28;;;4.40;99.90;;;;;;4955319;28;20103;-65
2023/03/16 05:17:18;;;;;;;5.78;3.05;;;4.40;99.90;;;;;;4973033;28;20043;-65
2023/03/16 05:19:44;;;;;;;5.90;2.92;;;4.40;99.90;;;;;;4972552;28;20074;-65
2023/03/16 05:22:10;;;;;;;5.60;3.10;;;4.40;99.90;;;;;;4953808;28;20043;-65
2023/03/16 05:24:36;;;;;;;5.40;2.80;;;4.40;99.90;;;;;;4955873;28;20510;-65
2023/03/16 05:27:02;;;;;;;6.10;3.45;;;4.40;99.90;;;;;;4986839;28;20487;-65
2023/03/16 05:29:30;;;;;;;5.68;3.45;;;4.40;99.90;;;;;;4988346;28;20126;-65
2023/03/16 05:31:56;;;;;;;7.38;3.28;;;4.40;99.90;;;;;;4968537;28;20061;-65
2023/03/16 05:34:22;;;;;;;5.90;3.15;;;4.50;99.90;;;;;;4959092;28;20039;-65
2023/03/16 05:36:48;;;;;;;6.05;2.83;;;4.50;99.90;;;;;;4953119;28;20467;-65
2023/03/16 05:39:13;;;;;;;9.18;3.50;;;4.50;99.90;;;;;;4952889;28;20106;-66
2023/03/16 05:41:39;;;;;;;4.72;3.22;;;4.50;99.90;;;;;;4969063;28;20086;-66
2023/03/16 05:44:06;;;;;;;7.15;3.15;;;4.50;99.90;;;;;;4969428;28;20466;-66
2023/03/16 05:46:32;;;;;;;6.45;3.30;;;4.50;99.90;;;;;;4969500;28;20074;-66
2023/03/16 05:48:58;;;;;;;6.90;3.40;;;4.50;99.90;;;;;;4970978;28;20061;-66
2023/03/16 05:51:26;;;;;;;4.82;3.00;;;4.50;99.90;;;;;;4953187;28;20074;-65
2023/03/16 05:53:55;;;;;;;7.15;3.42;;;4.50;99.90;;;;;;4968590;28;20414;-66
2023/03/16 05:56:23;;;;;;;5.85;3.28;;;4.50;99.90;;;;;;4983750;28;20046;-65
2023/03/16 05:58:51;;;;;;;6.30;3.58;;;4.50;99.90;;;;;;4952966;28;20055;-65
2023/03/16 06:01:16;;;;;;;6.85;3.72;;;4.50;99.90;;;;;;4970903;28;20042;-66
2023/03/16 06:03:42;;;;;;;7.45;3.38;;;4.50;99.90;;;;;;4972370;28;20446;-65
2023/03/16 06:06:08;;;;;;;8.10;3.35;;;4.50;99.90;;;;;;4971695;28;20074;-66
2023/03/16 06:08:33;;;;;;;6.05;3.03;;;4.50;99.90;;;;;;4970529;28;20034;-65
2023/03/16 06:10:59;;;;;;;6.22;3.20;;;4.40;99.90;;;;;;4984421;28;20046;-66
2023/03/16 06:13:25;;;;;;;9.48;3.38;;;4.40;99.90;;;;;;4955018;28;20455;-65
2023/03/16 06:15:50;;;;;;;5.15;3.67;;;4.40;99.90;;;;;;4986106;28;20106;-66
2023/03/16 06:18:16;;;;;;;6.95;3.53;;;4.40;99.90;;;;;;4987124;28;20494;-66
2023/03/16 06:20:42;;;;;;;4.68;2.85;;;4.40;99.90;;;;;;4986092;28;20043;-66
2023/03/16 06:23:08;;;;;;;5.65;3.08;;;4.40;99.90;;;;;;4953946;28;20054;-65
2023/03/16 06:25:33;;;;;;;6.88;3.55;;;4.40;99.90;;;;;;4970915;28;20456;-65
2023/03/16 06:27:59;;;;;;;6.00;3.55;;;4.40;99.90;;;;;;4955320;28;20042;-66
2023/03/16 06:30:25;;;;;;;7.28;3.67;;;4.50;99.90;;;;;;4971618;28;20043;-65
2023/03/16 06:32:51;;;;;;;5.90;3.08;;;4.40;99.90;;;;;;4951995;28;20045;-65
2023/03/16 06:35:17;;;;;;;4.30;2.97;;;4.50;99.90;;;;;;4970101;28;20463;-66
2023/03/16 06:37:43;;;;;;;5.40;3.42;;;4.50;99.90;;;;;;4971373;28;20097;-66
2023/03/16 06:40:10;;;;;;;5.30;3.45;;;4.50;99.90;;;;;;4951047;28;20097;-66
2023/03/16 06:42:35;;;;;;;5.60;3.10;;;4.50;99.90;;;;;;4953703;28;20053;-65
2023/03/16 06:45:01;;;;;;;5.05;3.05;;;4.60;99.90;;;;;;4969471;28;20042;-65
2023/03/16 06:47:27;;;;;;;8.73;3.45;;;4.50;99.90;;;;;;4970397;28;20482;-66
2023/03/16 06:49:54;;;;;;;6.35;3.65;;;4.60;99.90;;;;;;4968612;28;20049;-66
2023/03/16 06:52:20;;;;;;;5.88;3.00;;;4.60;99.90;;;;;;4968876;28;20136;-66
2023/03/16 06:54:46;;;;;;;4.43;2.85;;;4.70;99.90;;;;;;4980973;28;20035;-66
2023/03/16 06:57:12;;;;;;;5.10;3.28;;;4.70;99.90;;;;;;4968469;28;20046;-66
2023/03/16 06:59:38;;;;;;;5.63;2.90;;;4.80;99.90;;;;;;4967197;28;20069;-66
2023/03/16 07:02:05;;;;;;;5.40;2.85;;;4.80;99.90;;;;;;4950374;28;20039;-66
2023/03/16 07:04:32;;;;;;;6.55;3.00;;;4.90;99.90;;;;;;4951073;28;20154;-64
2023/03/16 07:06:58;;;;;;;7.32;3.22;;;4.80;99.90;;;;;;4968623;28;20529;-65
2023/03/16 07:09:24;;;;;;;5.65;3.40;;;4.90;99.90;;;;;;4937851;28;20046;-66
2023/03/16 07:11:51;;;;;;;5.22;3.08;;;4.90;99.90;;;;;;4971377;28;20367;-65
2023/03/16 07:14:18;;;;;;;5.80;2.85;;;4.90;99.90;;;;;;4953937;28;20071;-66
2023/03/16 07:16:44;;;;;;;6.63;3.03;;;4.90;99.90;;;;;;4970642;28;20194;-65
2023/03/16 07:19:10;;;;;;;6.13;2.72;;;4.90;99.90;;;;;;4972339;28;20039;-65
2023/03/16 07:21:39;;;;;;;5.20;2.78;;;5.00;99.90;;;;;;4953454;28;20042;-65
2023/03/16 07:24:06;;;;;;;7.55;3.50;;;5.00;99.90;;;;;;4953169;28;20047;-65
2023/03/16 07:26:32;;;;;;;6.13;3.00;;;5.00;99.90;;;;;;4970765;28;20058;-65
2023/03/16 07:28:58;;;;;;;3.80;2.90;;;5.10;99.90;;;;;;4951729;28;20103;-65
2023/03/16 07:31:24;;;;;;;6.65;3.63;;;5.00;99.90;;;;;;4982147;28;20047;-65
2023/03/16 07:33:50;;;;;;;6.03;2.88;;;5.00;99.90;;;;;;4984666;28;20519;-65
2023/03/16 07:36:16;;;;;;;5.38;3.15;;;5.20;99.90;;;;;;4970627;28;20359;-65
2023/03/16 07:38:42;;;;;;;5.10;3.13;;;5.10;99.90;;;;;;4970725;28;20050;-65
2023/03/16 07:41:08;;;;;;;6.00;3.05;;;5.20;99.90;;;;;;4952684;28;20038;-65
2023/03/16 07:43:34;;;;;;;5.95;3.35;;;5.20;99.90;;;;;;4953076;28;20043;-66
2023/03/16 07:46:00;;;;;;;6.75;3.10;;;5.20;99.90;;;;;;4951761;28;20054;-66
2023/03/16 07:48:26;;;;;;;5.15;3.03;;;5.30;99.90;;;;;;4970092;28;20043;-65
2023/03/16 07:50:53;;;;;;;5.10;2.72;;;5.30;99.90;;;;;;4969642;28;20495;-65
2023/03/16 07:53:19;;;;;;;5.13;2.63;;;5.30;99.90;;;;;;4968646;28;20085;-65
2023/03/16 07:55:44;;;;;;;2.97;2.67;;;5.30;99.90;;;;;;4970880;28;20042;-66
2023/03/16 07:58:11;;;;;;;5.35;3.10;;;5.40;99.90;;;;;;4970968;28;20045;-66
2023/03/16 08:00:37;;;;;;;5.70;3.38;;;5.40;99.90;;;;;;4969751;28;20101;-65
2023/03/16 08:03:03;;;;;;;6.63;3.17;;;5.40;99.90;;;;;;4986309;28;20097;-65
2023/03/16 08:05:31;;;;;;;4.43;2.97;;;5.40;99.90;;;;;;4953196;28;20530;-66
2023/03/16 08:07:57;;;;;;;6.75;3.28;;;5.50;99.90;;;;;;4970402;28;20503;-66
2023/03/16 08:10:24;;;;;;;5.55;3.00;;;5.50;99.90;;;;;;4969877;28;20039;-66
2023/03/16 08:12:50;;;;;;;7.00;3.13;;;5.50;99.90;;;;;;4952407;28;20042;-66
2023/03/16 08:15:18;;;;;;;6.47;3.58;;;5.50;99.90;;;;;;4984848;28;20141;-66
2023/03/16 08:17:44;;;;;;;5.85;3.20;;;5.70;99.90;;;;;;4951413;28;20432;-65
2023/03/16 08:20:13;;;;;;;4.75;2.80;;;5.50;99.90;;;;;;4970339;28;20045;-65
2023/03/16 08:22:39;;;;;;;5.05;3.67;;;5.50;99.90;;;;;;4954378;28;20046;-66
2023/03/16 08:25:09;;;;;;;5.75;3.75;;;5.50;99.90;;;;;;4952768;28;20057;-66
2023/03/16 08:27:36;;;;;;;5.60;3.10;;;5.50;99.90;;;;;;4966277;28;20046;-66
2023/03/16 08:30:10;;;;;;;6.68;3.80;;;5.40;99.90;;;;;;4950840;28;20074;-65
2023/03/16 08:32:38;;;;;;;9.57;3.70;;;5.40;99.90;;;;;;4949394;28;20053;-66
2023/03/16 08:35:05;;;;;;;5.60;3.63;;;5.40;99.90;;;;;;4966604;28;20487;-65
2023/03/16 08:37:31;;;;;;;6.70;4.00;;;5.40;99.90;;;;;;4969646;28;20038;-65
2023/03/16 08:39:59;;;;;;;8.15;4.05;;;5.30;99.90;;;;;;4950713;28;20027;-65
2023/03/16 08:42:25;;;;;;;8.93;3.75;;;5.40;99.90;;;;;;4969837;28;20056;-64
2023/03/16 08:44:53;;;;;;;6.85;3.97;;;5.30;99.90;;;;;;4969244;28;20399;-65
2023/03/16 08:47:21;;;;;;;7.03;4.03;;;5.30;99.90;;;;;;4969113;28;20406;-65
2023/03/16 08:49:46;;;;;;;6.82;4.10;;;5.30;99.90;;;;;;4969606;28;20113;-64
2023/03/16 08:52:12;;;;;;;7.95;3.97;;;5.30;99.90;;;;;;4969009;28;20035;-64
2023/03/16 08:54:42;;;;;;;8.73;4.38;;;5.30;99.90;;;;;;4952579;28;20146;-64
2023/03/16 08:57:09;;;;;;;5.82;3.90;;;5.30;99.90;;;;;;4969470;28;20406;-64
2023/03/16 08:59:35;;;;;;;6.40;4.45;;;5.30;99.90;;;;;;4969671;28;20233;-65
2023/03/16 09:02:03;;;;;;;7.32;4.68;;;5.20;99.90;;;;;;4968852;28;20109;-65
2023/03/16 09:04:29;;;;;;;7.50;4.70;;;5.30;99.90;;;;;;4969377;28;20054;-65
2023/03/16 09:06:58;;;;;;;8.85;4.10;;;5.30;99.90;;;;;;4983821;28;20050;-64
2023/03/16 09:09:23;;;;;;;7.63;4.10;;;5.30;99.90;;;;;;4984120;28;20432;-65
2023/03/16 09:11:49;;;;;;;7.45;4.20;;;5.30;99.90;;;;;;4968866;28;20114;-65
2023/03/16 09:14:15;;;;;;;7.78;4.32;;;5.30;99.90;;;;;;4955766;28;20093;-65
2023/03/16 09:16:40;;;;;;;10.38;4.75;;;5.30;99.90;;;;;;4971857;28;20034;-66
2023/03/16 09:19:06;;;;;;;7.32;4.65;;;5.30;99.90;;;;;;4972979;28;20053;-65
2023/03/16 09:21:34;;;;;;;6.22;4.45;;;5.30;99.90;;;;;;4971993;28;20145;-65
2023/03/16 09:24:01;;;;;;;6.18;4.18;;;5.30;99.90;;;;;;4972349;28;20356;-66
2023/03/16 09:26:27;;;;;;;9.45;4.80;;;5.30;99.90;;;;;;4954205;28;20114;-66
2023/03/16 09:28:53;;;;;;;6.78;4.47;;;5.40;99.90;;;;;;4955243;28;20043;-66
2023/03/16 09:31:20;;;;;;;5.00;4.15;;;5.40;99.90;;;;;;4954175;28;20039;-67
2023/03/16 09:33:46;;;;;;;6.32;4.80;;;5.40;99.90;;;;;;4954369;28;20034;-67
2023/03/16 09:36:12;;;;;;;8.23;4.80;;;5.50;99.90;;;;;;4972674;28;20066;-67
2023/03/16 09:38:39;;;;;;;5.35;4.63;;;5.50;99.90;;;;;;4955173;28;20531;-67
2023/03/16 09:41:24;;;;;;;8.30;5.35;;;5.60;99.90;;;;;;4970435;28;20050;-67
2023/03/16 09:44:35;;;;;;;7.35;4.68;;;5.70;99.90;;;;;;4987412;28;20051;-67
2023/03/16 09:47:03;;;;;;;6.72;5.20;;;5.80;99.90;;;;;;4943080;28;20063;-68
2023/03/16 09:49:36;;;;;;;10.10;5.10;;;5.80;99.90;;;;;;4953533;28;20071;-69
2023/03/16 09:52:14;;;;;;;10.00;5.55;;;5.80;99.90;;;;;;4968088;28;20064;-68
2023/03/16 09:54:55;;;;;;;8.57;6.05;;;5.80;99.90;;;;;;4988327;28;20045;-69
2023/03/16 09:57:29;;;;;;;9.85;6.38;;;5.80;99.90;;;;;;4952688;28;20122;-69
2023/03/16 10:00:01;;;;;;;7.75;5.90;;;5.80;99.90;;;;;;4938383;28;20043;-69
2023/03/16 10:02:39;;;;;;;10.57;5.80;;;5.80;99.90;;;;;;4954336;28;20129;-68
2023/03/16 10:05:13;;;;;;;8.70;5.82;;;5.80;99.90;;;;;;4953720;28;20098;-69
2023/03/16 10:07:57;;;;;;;9.20;5.63;;;5.80;99.90;;;;;;4989193;28;20466;-69
2023/03/16 10:10:48;;;;;;;8.15;5.35;;;5.80;99.90;;;;;;4952091;28;20081;-69
2023/03/16 10:13:23;;;;;;;9.70;5.60;;;5.80;99.90;;;;;;4959247;28;20041;-69
2023/03/16 10:15:51;;;;;;;7.15;5.43;;;5.80;99.90;;;;;;4953142;28;20062;-70
2023/03/16 10:18:27;;;;;;;8.38;5.53;;;5.90;99.90;;;;;;4989092;28;20126;-69
2023/03/16 10:20:54;;;;;;;5.90;4.72;;;5.90;99.90;;;;;;4952372;28;20043;-69
2023/03/16 10:23:23;;;;;;;10.10;5.43;;;6.00;99.90;;;;;;4986181;28;20403;-69
2023/03/16 10:25:51;;;;;;;9.65;6.00;;;6.00;99.90;;;;;;4950034;28;20098;-68
2023/03/16 10:28:21;;;;;;;8.05;5.35;;;6.10;99.90;;;;;;4958212;28;20606;-69
2023/03/16 10:30:49;;;;;;;8.43;4.93;;;6.10;99.90;;;;;;4953334;28;20164;-69
2023/03/16 10:33:38;;;;;;;8.95;5.20;;;6.10;99.90;;;;;;4955141;28;20038;-68
2023/03/16 10:36:24;;;;;;;10.30;4.90;;;6.20;99.90;;;;;;4971176;28;20376;-68
2023/03/16 10:38:58;;;;;;;7.13;4.75;;;6.20;99.90;;;;;;4987186;28;20046;-68
2023/03/16 10:41:33;;;;;;;9.15;4.65;;;6.20;99.90;;;;;;4985596;28;20058;-68
2023/03/16 10:44:08;;;;;;;;;;;6.20;99.90;;;;;;4972010;28;20113;-68
2023/03/16 10:46:46;;;;;;;10.68;5.55;;;6.20;99.90;;;;;;4940814;28;20477;-69
2023/03/16 10:49:28;;;;;;;9.60;4.45;;;6.30;99.90;;;;;;4952134;28;20054;-69
2023/03/16 10:51:59;;;;;;;8.75;4.80;;;6.40;99.90;;;;;;4951587;28;20043;-69
2023/03/16 10:54:38;;;;;;;7.60;4.90;;;6.40;99.90;;;;;;4965171;28;20651;-69
2023/03/16 10:57:20;;;;;;;5.95;4.30;;;6.50;99.90;;;;;;4952468;28;20038;-69
2023/03/16 10:59:50;;;;;;;6.38;4.05;;;6.50;99.90;;;;;;4967435;28;20074;-69
2023/03/16 11:02:22;;;;;;;7.65;4.80;;;6.60;99.90;;;;;;4969815;28;20474;-69
2023/03/16 11:04:48;;;;;;;9.00;4.38;;;6.60;99.90;;;;;;4982744;28;20174;-69
2023/03/16 11:07:17;;;;;;;6.85;4.07;;;6.60;99.90;;;;;;4952965;28;20487;-68
2023/03/16 11:09:46;;;;;;;7.78;4.07;;;6.60;99.90;;;;;;4985971;28;20074;-68
2023/03/16 11:12:27;;;;;;;6.18;4.30;;;6.60;99.90;;;;;;4949473;28;20062;-67
2023/03/16 11:14:54;;;;;;;6.07;4.05;;;6.60;99.90;;;;;;4969981;28;20462;-68
2023/03/16 11:17:31;;;;;;;6.47;4.20;;;6.60;99.90;;;;;;4956205;28;20407;-67
2023/03/16 11:20:11;;;;;;;8.98;4.32;;;6.60;99.90;;;;;;4936698;28;20046;-69
2023/03/16 11:22:38;;;;;;;6.72;4.15;;;6.70;99.90;;;;;;4961540;28;20130;-68
2023/03/16 11:25:14;;;;;;;6.43;3.95;;;6.70;99.90;;;;;;4954962;28;20047;-68
2023/03/16 11:27:49;;;;;;;8.55;4.47;;;6.80;99.90;;;;;;4988099;28;20191;-67
2023/03/16 11:30:23;;;;;;;;;;;6.80;99.90;;;;;;4938221;28;20065;-68
2023/03/16 11:32:52;;;;;;;5.22;3.50;;;6.90;99.90;;;;;;4983163;28;19926;-67
2023/03/16 11:35:39;;;;;;;4.65;3.65;;;7.00;99.90;;;;;;4982374;28;20065;-68
2023/03/16 11:38:42;;;;;;;7.38;4.30;;;7.10;99.90;;;;;;4970308;28;20046;-68
2023/03/16 11:41:20;;;;;;;7.10;3.63;;;7.20;99.90;;;;;;4920063;28;20574;-67
2023/03/16 11:43:56;;;;;;;7.22;3.83;;;7.30;99.90;;;;;;4975300;28;20034;-68
2023/03/16 11:46:26;;;;;;;7.53;3.80;;;7.50;99.90;;;;;;4950449;28;20094;-68
2023/03/16 11:49:23;;;;;;;9.63;4.55;;;7.60;99.90;;;;;;4984607;28;20541;-68
2023/03/16 11:52:07;;;;;;;7.25;3.80;;;7.80;99.90;;;;;;4953968;28;20454;-69
2023/03/16 11:55:08;;;;;;;5.55;3.40;;;7.90;99.90;;;;;;4953042;28;20121;-68
2023/03/16 11:57:52;;;;;;;5.47;3.47;;;8.10;99.90;;;;;;4950041;28;20035;-68
2023/03/16 12:00:35;;;;;;;6.05;3.53;;;8.30;99.90;;;;;;4938342;28;20050;-68
2023/03/16 12:03:23;;;;;;;4.30;2.95;;;8.50;99.90;;;;;;4950842;28;20143;-68
2023/03/16 12:05:57;;;;;;;6.75;3.40;;;8.70;99.90;;;;;;4952482;28;20043;-68
2023/03/16 12:08:43;;;;;;;4.80;3.17;;;8.80;99.90;;;;;;4968885;28;20039;-67
2023/03/16 12:11:13;;;;;;;5.70;3.70;;;8.80;99.90;;;;;;4977527;28;20035;-68
2023/03/16 12:14:00;;;;;;;4.15;3.20;;;8.90;99.90;;;;;;4953159;28;20050;-67
2023/03/16 12:16:53;;;;;;;3.95;2.63;;;9.10;99.90;;;;;;4952614;28;20034;-68
2023/03/16 12:20:04;;;;;;;6.28;2.70;;;9.50;99.90;;;;;;4950988;28;20062;-69
2023/03/16 12:22:43;;;;;;;5.22;3.28;;;9.80;99.90;;;;;;4964126;28;20161;-69
2023/03/16 12:25:20;;;;;;;5.05;2.70;;;9.70;99.90;;;;;;4952181;28;20043;-69
2023/03/16 12:27:51;;;;;;;5.20;3.30;;;9.50;99.90;;;;;;4952245;28;20314;-69
2023/03/16 12:30:46;;;;;;;5.55;2.92;;;9.40;99.90;;;;;;4951166;28;20038;-68
2023/03/16 12:33:53;;;;;;;8.25;2.78;;;9.40;99.90;;;;;;4950617;28;20038;-68
2023/03/16 12:37:03;;;;;;;4.95;3.13;;;9.30;99.90;;;;;;4936321;28;20042;-68
2023/03/16 12:39:44;;;;;;;4.25;2.58;;;9.30;99.90;;;;;;4984923;28;20117;-68
2023/03/16 12:42:19;;;;;;;5.40;2.65;;;9.30;99.90;;;;;;4984817;28;20070;-68
2023/03/16 12:45:03;;;;;;;5.03;2.30;;;9.20;99.90;;;;;;4937860;28;20106;-68
2023/03/16 12:47:57;;;;;;;5.45;2.65;;;9.20;99.90;;;;;;4970121;28;20043;-68
2023/03/16 12:50:24;;;;;;;3.30;2.25;;;9.20;99.90;;;;;;4954570;28;20202;-68
2023/03/16 12:52:52;;;;;;;4.00;2.70;;;9.10;99.90;;;;;;4954380;28;20054;-68
2023/03/16 12:55:26;;;;;;;5.70;2.78;;;9.10;99.90;;;;;;4972193;28;20486;-69
2023/03/16 12:58:00;;;;;;;;;;;9.20;99.90;;;;;;4956746;28;20042;-69
2023/03/16 13:00:39;;;;;;;5.25;2.20;;;9.10;99.90;;;;;;4971891;28;19925;-69
2023/03/16 13:03:11;;;;;;;3.17;2.20;;;9.20;99.90;;;;;;4971313;28;20035;-68
2023/03/16 13:05:45;;;;;;;4.57;2.20;;;9.10;99.90;;;;;;4955689;28;20542;-68
2023/03/16 13:08:14;;;;;;;3.55;2.10;;;9.10;99.90;;;;;;4985842;28;20047;-69
2023/03/16 13:10:41;;;;;;;6.43;2.40;;;9.10;99.90;;;;;;4945472;28;20042;-69
2023/03/16 13:13:16;;;;;;;5.25;2.70;;;9.10;99.90;;;;;;4988232;28;20506;-69
2023/03/16 13:16:37;;;;;;;4.88;2.78;;;9.10;99.90;;;;;;4970628;28;20041;-68
2023/03/16 13:19:23;;;;;;;6.20;2.78;;;9.20;99.90;;;;;;4954547;28;20061;-69
2023/03/16 13:22:04;;;;;;;4.78;3.03;;;9.40;99.90;;;;;;4952321;28;20577;-69